sensor_id;sensor_type;location;lat;lon;timestamp;pressure;altitude;pressure_sealevel;temperature;humidity
41202;BME280;26936;50.524;8.684;2023-04-01T00:01:06;97510.13;;;9.63;100.00
41202;BME280;26936;50.524;8.684;2023-04-01T00:03:33;97508.38;;;9.66;100.00
41202;BME280;26936;50.524;8.684;2023-04-01T00:05:59;97505.75;;;9.62;100.00
41202;BME280;26936;50.524;8.684;2023-04-01T00:08:26;97505.50;;;9.60;100.00
41202;BME280;26936;50.524;8.684;2023-04-01T00:10:52;97517.28;;;9.64;100.00
41202;BME280;26936;50.524;8.684;2023-04-01T00:13:18;97508.03;;;9.58;100.00
41202;BME280;26936;50.524;8.684;2023-04-01T00:15:43;97500.88;;;9.57;100.00
41202;BME280;26936;50.524;8.684;2023-04-01T00:18:09;97514.84;;;9.52;100.00
41202;BME280;26936;50.524;8.684;2023-04-01T00:20:35;97511.25;;;9.51;100.00
41202;BME280;26936;50.524;8.684;2023-04-01T00:23:01;97511.53;;;9.53;100.00
41202;BME280;26936;50.524;8.684;2023-04-01T00:25:27;97516.44;;;9.58;100.00
41202;BME280;26936;50.524;8.684;2023-04-01T00:27:52;97502.69;;;9.60;100.00
41202;BME280;26936;50.524;8.684;2023-04-01T00:30:18;97502.59;;;9.55;100.00
41202;BME280;26936;50.524;8.684;2023-04-01T00:32:43;97506.41;;;9.52;100.00
41202;BME280;26936;50.524;8.684;2023-04-01T00:35:08;97511.25;;;9.51;100.00
41202;BME280;26936;50.524;8.684;2023-04-01T00:37:35;97507.25;;;9.58;100.00
41202;BME280;26936;50.524;8.684;2023-04-01T00:40:02;97510.75;;;9.53;100.00
41202;BME280;26936;50.524;8.684;2023-04-01T00:42:29;97511.81;;;9.55;100.00
41202;BME280;26936;50.524;8.684;2023-04-01T00:44:54;97505.63;;;9.51;100.00
41202;BME280;26936;50.524;8.684;2023-04-01T00:47:21;97506.53;;;9.43;100.00
41202;BME280;26936;50.524;8.684;2023-04-01T00:49:50;97514.25;;;9.48;100.00
41202;BME280;26936;50.524;8.684;2023-04-01T00:52:19;97513.69;;;9.44;100.00
41202;BME280;26936;50.524;8.684;2023-04-01T00:54:49;97505.91;;;9.53;100.00
41202;BME280;26936;50.524;8.684;2023-04-01T00:57:23;97509.69;;;9.50;100.00
41202;BME280;26936;50.524;8.684;2023-04-01T00:59:52;97507.31;;;9.43;100.00
41202;BME280;26936;50.524;8.684;2023-04-01T01:02:19;97501.75;;;9.49;100.00
41202;BME280;26936;50.524;8.684;2023-04-01T01:04:45;97500.97;;;9.48;100.00
41202;BME280;26936;50.524;8.684;2023-04-01T01:15:41;97494.53;;;9.42;100.00
41202;BME280;26936;50.524;8.684;2023-04-01T01:21:07;97504.91;;;9.56;100.00
41202;BME280;26936;50.524;8.684;2023-04-01T01:23:56;97499.72;;;9.49;100.00
41202;BME280;26936;50.524;8.684;2023-04-01T01:37:14;97497.06;;;9.40;100.00
41202;BME280;26936;50.524;8.684;2023-04-01T01:39:41;97494.16;;;9.35;100.00
41202;BME280;26936;50.524;8.684;2023-04-01T01:42:11;97488.03;;;9.36;100.00
41202;BME280;26936;50.524;8.684;2023-04-01T01:44:39;97494.03;;;9.44;100.00
41202;BME280;26936;50.524;8.684;2023-04-01T01:47:07;97486.38;;;9.44;100.00
41202;BME280;26936;50.524;8.684;2023-04-01T01:49:33;97488.31;;;9.38;100.00
41202;BME280;26936;50.524;8.684;2023-04-01T01:52:00;97479.84;;;9.33;100.00
41202;BME280;26936;50.524;8.684;2023-04-01T01:54:25;97484.47;;;9.36;100.00
41202;BME280;26936;50.524;8.684;2023-04-01T01:56:57;97477.66;;;9.42;100.00
41202;BME280;26936;50.524;8.684;2023-04-01T01:59:27;97488.13;;;9.42;100.00
41202;BME280;26936;50.524;8.684;2023-04-01T02:01:55;97491.91;;;9.39;100.00
41202;BME280;26936;50.524;8.684;2023-04-01T02:04:22;97494.72;;;9.39;100.00
41202;BME280;26936;50.524;8.684;2023-04-01T02:07:02;97504.69;;;9.40;100.00
41202;BME280;26936;50.524;8.684;2023-04-01T02:09:29;97489.19;;;9.44;100.00
41202;BME280;26936;50.524;8.684;2023-04-01T02:12:00;97497.63;;;9.44;100.00
41202;BME280;26936;50.524;8.684;2023-04-01T02:14:39;97489.47;;;9.46;100.00
41202;BME280;26936;50.524;8.684;2023-04-01T02:17:09;97488.63;;;9.40;100.00
41202;BME280;26936;50.524;8.684;2023-04-01T02:19:41;97486.09;;;9.42;100.00
41202;BME280;26936;50.524;8.684;2023-04-01T02:22:14;97489.91;;;9.39;100.00
41202;BME280;26936;50.524;8.684;2023-04-01T02:24:41;97496.25;;;9.40;100.00
41202;BME280;26936;50.524;8.684;2023-04-01T02:27:09;97492.97;;;9.41;100.00
41202;BME280;26936;50.524;8.684;2023-04-01T02:29:35;97490.59;;;9.34;100.00
41202;BME280;26936;50.524;8.684;2023-04-01T02:32:02;97492.91;;;9.36;100.00
41202;BME280;26936;50.524;8.684;2023-04-01T02:34:27;97493.09;;;9.32;100.00
41202;BME280;26936;50.524;8.684;2023-04-01T02:36:54;97494.38;;;9.31;100.00
41202;BME280;26936;50.524;8.684;2023-04-01T02:39:20;97492.03;;;9.30;100.00
41202;BME280;26936;50.524;8.684;2023-04-01T02:41:45;97492.63;;;9.34;100.00
41202;BME280;26936;50.524;8.684;2023-04-01T02:44:12;97501.25;;;9.30;100.00
41202;BME280;26936;50.524;8.684;2023-04-01T02:46:38;97489.41;;;9.41;100.00
41202;BME280;26936;50.524;8.684;2023-04-01T02:49:04;97492.00;;;9.44;100.00
41202;BME280;26936;50.524;8.684;2023-04-01T02:51:29;97486.59;;;9.41;100.00
41202;BME280;26936;50.524;8.684;2023-04-01T02:53:54;97497.25;;;9.37;100.00
41202;BME280;26936;50.524;8.684;2023-04-01T02:56:20;97496.41;;;9.31;100.00
41202;BME280;26936;50.524;8.684;2023-04-01T02:58:46;97488.75;;;9.31;100.00
41202;BME280;26936;50.524;8.684;2023-04-01T03:01:11;97497.66;;;9.30;100.00
41202;BME280;26936;50.524;8.684;2023-04-01T03:03:38;97493.03;;;9.27;100.00
41202;BME280;26936;50.524;8.684;2023-04-01T03:06:06;97494.28;;;9.26;100.00
41202;BME280;26936;50.524;8.684;2023-04-01T03:08:31;97491.78;;;9.28;100.00
41202;BME280;26936;50.524;8.684;2023-04-01T03:10:57;97499.06;;;9.20;100.00
41202;BME280;26936;50.524;8.684;2023-04-01T03:13:22;97497.94;;;9.12;100.00
41202;BME280;26936;50.524;8.684;2023-04-01T03:15:47;97495.59;;;9.10;100.00
41202;BME280;26936;50.524;8.684;2023-04-01T03:18:12;97497.44;;;9.13;100.00
41202;BME280;26936;50.524;8.684;2023-04-01T03:20:38;97495.13;;;9.12;100.00
41202;BME280;26936;50.524;8.684;2023-04-01T03:23:03;97495.13;;;9.12;100.00
41202;BME280;26936;50.524;8.684;2023-04-01T03:25:28;97496.50;;;9.02;100.00
41202;BME280;26936;50.524;8.684;2023-04-01T03:27:55;97507.03;;;9.07;100.00
41202;BME280;26936;50.524;8.684;2023-04-01T03:30:21;97495.03;;;9.06;100.00
41202;BME280;26936;50.524;8.684;2023-04-01T03:32:46;97493.94;;;9.04;100.00
41202;BME280;26936;50.524;8.684;2023-04-01T03:35:11;97496.41;;;8.96;100.00
41202;BME280;26936;50.524;8.684;2023-04-01T03:37:37;97501.53;;;8.98;100.00
41202;BME280;26936;50.524;8.684;2023-04-01T03:40:03;97499.69;;;8.95;100.00
41202;BME280;26936;50.524;8.684;2023-04-01T03:42:29;97500.75;;;8.97;100.00
41202;BME280;26936;50.524;8.684;2023-04-01T03:44:56;97496.31;;;8.91;100.00
41202;BME280;26936;50.524;8.684;2023-04-01T03:47:21;97507.16;;;8.98;100.00
41202;BME280;26936;50.524;8.684;2023-04-01T03:49:47;97497.94;;;8.97;100.00
41202;BME280;26936;50.524;8.684;2023-04-01T03:52:12;97501.72;;;8.94;100.00
41202;BME280;26936;50.524;8.684;2023-04-01T03:54:37;97507.34;;;8.94;100.00
41202;BME280;26936;50.524;8.684;2023-04-01T03:57:03;97503.50;;;8.92;100.00
41202;BME280;26936;50.524;8.684;2023-04-01T03:59:28;97508.63;;;8.93;100.00
41202;BME280;26936;50.524;8.684;2023-04-01T04:01:53;97514.31;;;8.84;100.00
41202;BME280;26936;50.524;8.684;2023-04-01T04:04:18;97505.22;;;8.89;100.00
41202;BME280;26936;50.524;8.684;2023-04-01T04:06:44;97502.84;;;8.82;100.00
41202;BME280;26936;50.524;8.684;2023-04-01T04:09:09;97501.22;;;8.96;100.00
41202;BME280;26936;50.524;8.684;2023-04-01T04:11:34;97490.91;;;8.87;100.00
41202;BME280;26936;50.524;8.684;2023-04-01T04:14:00;97490.91;;;8.87;100.00
41202;BME280;26936;50.524;8.684;2023-04-01T04:16:25;97494.69;;;8.84;100.00
41202;BME280;26936;50.524;8.684;2023-04-01T04:18:50;97497.47;;;8.84;100.00
41202;BME280;26936;50.524;8.684;2023-04-01T04:21:18;97497.69;;;8.81;100.00
41202;BME280;26936;50.524;8.684;2023-04-01T04:23:44;97494.41;;;8.82;100.00
41202;BME280;26936;50.524;8.684;2023-04-01T04:26:11;97502.03;;;8.82;100.00
41202;BME280;26936;50.524;8.684;2023-04-01T04:28:37;97497.03;;;8.86;100.00
41202;BME280;26936;50.524;8.684;2023-04-01T04:31:03;97500.03;;;8.82;100.00
41202;BME280;26936;50.524;8.684;2023-04-01T04:33:30;97497.69;;;8.81;100.00
41202;BME280;26936;50.524;8.684;2023-04-01T04:35:57;97497.59;;;8.75;100.00
41202;BME280;26936;50.524;8.684;2023-04-01T04:38:23;97493.81;;;8.78;100.00
41202;BME280;26936;50.524;8.684;2023-04-01T04:40:48;97505.44;;;8.71;100.00
41202;BME280;26936;50.524;8.684;2023-04-01T04:43:15;97504.19;;;8.72;100.00
41202;BME280;26936;50.524;8.684;2023-04-01T04:45:41;97494.22;;;8.71;100.00
41202;BME280;26936;50.524;8.684;2023-04-01T04:48:12;97494.78;;;8.75;100.00
41202;BME280;26936;50.524;8.684;2023-04-01T04:50:41;97493.94;;;8.69;100.00
41202;BME280;26936;50.524;8.684;2023-04-01T04:53:10;97500.13;;;8.73;100.00
41202;BME280;26936;50.524;8.684;2023-04-01T04:55:35;97499.81;;;8.71;100.00
41202;BME280;26936;50.524;8.684;2023-04-01T04:58:00;97500.41;;;8.75;100.00
41202;BME280;26936;50.524;8.684;2023-04-01T05:00:25;97502.63;;;8.71;100.00
41202;BME280;26936;50.524;8.684;2023-04-01T05:02:51;97498.00;;;8.68;100.00
41202;BME280;26936;50.524;8.684;2023-04-01T05:05:16;97512.03;;;8.68;100.00
41202;BME280;26936;50.524;8.684;2023-04-01T05:07:41;97504.50;;;8.60;100.00
41202;BME280;26936;50.524;8.684;2023-04-01T05:10:07;97506.16;;;8.66;100.00
41202;BME280;26936;50.524;8.684;2023-04-01T05:12:32;97499.75;;;8.66;100.00
41202;BME280;26936;50.524;8.684;2023-04-01T05:15:02;97504.28;;;8.63;100.00
41202;BME280;26936;50.524;8.684;2023-04-01T05:17:27;97506.16;;;8.66;100.00
41202;BME280;26936;50.524;8.684;2023-04-01T05:19:52;97519.88;;;8.64;100.00
41202;BME280;26936;50.524;8.684;2023-04-01T05:22:18;97505.44;;;8.71;100.00
41202;BME280;26936;50.524;8.684;2023-04-01T05:24:43;97497.78;;;8.72;100.00
41202;BME280;26936;50.524;8.684;2023-04-01T05:27:08;97500.03;;;8.68;100.00
41202;BME280;26936;50.524;8.684;2023-04-01T05:29:33;97508.06;;;8.60;100.00
41202;BME280;26936;50.524;8.684;2023-04-01T05:32:00;97504.19;;;8.72;100.00
41202;BME280;26936;50.524;8.684;2023-04-01T05:34:25;97506.59;;;8.65;100.00
41202;BME280;26936;50.524;8.684;2023-04-01T05:36:50;97512.63;;;8.72;100.00
41202;BME280;26936;50.524;8.684;2023-04-01T05:39:17;97510.50;;;8.67;100.00
41202;BME280;26936;50.524;8.684;2023-04-01T05:41:42;97511.16;;;8.77;100.00
41202;BME280;26936;50.524;8.684;2023-04-01T05:44:11;97507.66;;;8.82;100.00
41202;BME280;26936;50.524;8.684;2023-04-01T05:46:36;97506.63;;;8.79;100.00
41202;BME280;26936;50.524;8.684;2023-04-01T05:49:02;97512.69;;;8.78;100.00
41202;BME280;26936;50.524;8.684;2023-04-01T05:51:27;97517.25;;;8.75;100.00
41202;BME280;26936;50.524;8.684;2023-04-01T05:53:52;97515.97;;;8.76;100.00
41202;BME280;26936;50.524;8.684;2023-04-01T05:56:18;97506.13;;;8.81;100.00
41202;BME280;26936;50.524;8.684;2023-04-01T05:58:46;97512.69;;;8.78;100.00
41202;BME280;26936;50.524;8.684;2023-04-01T06:01:14;97512.78;;;8.83;100.00
41202;BME280;26936;50.524;8.684;2023-04-01T06:03:39;97510.75;;;8.84;100.00
41202;BME280;26936;50.524;8.684;2023-04-01T06:06:13;97507.75;;;8.87;100.00
41202;BME280;26936;50.524;8.684;2023-04-01T06:08:40;97513.59;;;9.04;100.00
41202;BME280;26936;50.524;8.684;2023-04-01T06:14:07;97506.94;;;9.01;100.00
41202;BME280;26936;50.524;8.684;2023-04-01T06:16:49;97515.84;;;9.00;100.00
41202;BME280;26936;50.524;8.684;2023-04-01T06:19:39;97519.22;;;9.04;100.00
41202;BME280;26936;50.524;8.684;2023-04-01T06:30:33;97507.06;;;9.27;100.00
41202;BME280;26936;50.524;8.684;2023-04-01T06:33:12;97511.94;;;9.26;100.00
41202;BME280;26936;50.524;8.684;2023-04-01T06:36:13;97513.91;;;9.40;100.00
41202;BME280;26936;50.524;8.684;2023-04-01T06:41:32;97508.13;;;9.49;100.00
41202;BME280;26936;50.524;8.684;2023-04-01T06:44:14;97517.34;;;9.50;100.00
41202;BME280;26936;50.524;8.684;2023-04-01T06:46:57;97507.81;;;9.62;100.00
41202;BME280;26936;50.524;8.684;2023-04-01T06:52:00;97515.75;;;9.63;100.00
41202;BME280;26936;50.524;8.684;2023-04-01T06:54:35;97510.75;;;9.73;100.00
41202;BME280;26936;50.524;8.684;2023-04-01T06:59:47;97520.72;;;9.74;100.00
41202;BME280;26936;50.524;8.684;2023-04-01T07:02:34;97517.41;;;9.76;100.00
41202;BME280;26936;50.524;8.684;2023-04-01T07:05:04;97512.44;;;9.85;100.00
41202;BME280;26936;50.524;8.684;2023-04-01T07:07:46;97513.22;;;9.86;100.00
41202;BME280;26936;50.524;8.684;2023-04-01T07:10:29;97511.19;;;9.86;100.00
41202;BME280;26936;50.524;8.684;2023-04-01T07:12:58;97507.59;;;9.86;100.00
41202;BME280;26936;50.524;8.684;2023-04-01T07:15:30;97511.34;;;9.77;100.00
41202;BME280;26936;50.524;8.684;2023-04-01T07:18:20;97510.88;;;9.84;100.00
41202;BME280;26936;50.524;8.684;2023-04-01T07:20:49;97510.69;;;9.88;100.00
41202;BME280;26936;50.524;8.684;2023-04-01T07:23:24;97508.38;;;9.86;100.00
41202;BME280;26936;50.524;8.684;2023-04-01T07:25:55;97517.91;;;9.94;100.00
41202;BME280;26936;50.524;8.684;2023-04-01T07:28:21;97520.81;;;10.00;100.00
41202;BME280;26936;50.524;8.684;2023-04-01T07:31:00;97519.19;;;9.93;100.00
41202;BME280;26936;50.524;8.684;2023-04-01T07:36:49;97527.56;;;10.08;100.00
41202;BME280;26936;50.524;8.684;2023-04-01T07:42:22;97516.78;;;10.26;100.00
41202;BME280;26936;50.524;8.684;2023-04-01T07:45:05;97521.19;;;10.33;100.00
41202;BME280;26936;50.524;8.684;2023-04-01T07:48:39;97521.84;;;10.48;100.00
41202;BME280;26936;50.524;8.684;2023-04-01T07:50:33;97529.97;;;10.66;100.00
41202;BME280;26936;50.524;8.684;2023-04-01T07:53:18;97527.00;;;10.75;100.00
41202;BME280;26936;50.524;8.684;2023-04-01T07:55:54;97525.75;;;10.81;100.00
41202;BME280;26936;50.524;8.684;2023-04-01T07:58:56;97528.44;;;10.96;100.00
41202;BME280;26936;50.524;8.684;2023-04-01T08:01:20;97533.28;;;10.95;100.00
41202;BME280;26936;50.524;8.684;2023-04-01T08:12:08;97538.88;;;10.90;100.00
41202;BME280;26936;50.524;8.684;2023-04-01T08:15:15;97542.38;;;10.79;100.00
41202;BME280;26936;50.524;8.684;2023-04-01T08:18:02;97553.22;;;10.92;100.00
41202;BME280;26936;50.524;8.684;2023-04-01T08:20:51;97553.22;;;10.92;100.00
41202;BME280;26936;50.524;8.684;2023-04-01T08:23:36;97552.72;;;10.93;100.00
41202;BME280;26936;50.524;8.684;2023-04-01T08:26:10;97546.81;;;10.91;100.00
41202;BME280;26936;50.524;8.684;2023-04-01T08:28:46;97559.38;;;10.90;100.00
41202;BME280;26936;50.524;8.684;2023-04-01T08:31:34;97557.06;;;10.89;100.00
41202;BME280;26936;50.524;8.684;2023-04-01T08:34:03;97557.84;;;10.89;100.00
41202;BME280;26936;50.524;8.684;2023-04-01T08:36:38;97557.06;;;10.89;100.00
41202;BME280;26936;50.524;8.684;2023-04-01T08:39:13;97560.44;;;10.93;100.00
41202;BME280;26936;50.524;8.684;2023-04-01T08:44:31;97556.97;;;11.09;100.00
41202;BME280;26936;50.524;8.684;2023-04-01T08:47:13;97560.09;;;11.17;100.00
41202;BME280;26936;50.524;8.684;2023-04-01T08:49:56;97552.81;;;11.05;100.00
41202;BME280;26936;50.524;8.684;2023-04-01T08:52:33;97555.19;;;11.12;100.00
41202;BME280;26936;50.524;8.684;2023-04-01T08:57:52;97561.38;;;11.16;100.00
41202;BME280;26936;50.524;8.684;2023-04-01T09:00:29;97566.69;;;11.08;100.00
41202;BME280;26936;50.524;8.684;2023-04-01T09:05:53;97568.56;;;11.17;100.00
41202;BME280;26936;50.524;8.684;2023-04-01T09:11:33;97574.25;;;11.28;100.00
41202;BME280;26936;50.524;8.684;2023-04-01T09:22:28;97580.47;;;11.37;100.00
41202;BME280;26936;50.524;8.684;2023-04-01T09:44:32;97597.44;;;11.74;100.00
41202;BME280;26936;50.524;8.684;2023-04-01T09:53:17;97599.00;;;11.80;100.00
41202;BME280;26936;50.524;8.684;2023-04-01T09:58:48;97595.16;;;11.83;99.79
41202;BME280;26936;50.524;8.684;2023-04-01T10:04:29;97604.91;;;11.82;100.00
41202;BME280;26936;50.524;8.684;2023-04-01T10:07:45;97607.50;;;11.86;100.00
41202;BME280;26936;50.524;8.684;2023-04-01T10:10:45;97604.38;;;11.78;99.02
41202;BME280;26936;50.524;8.684;2023-04-01T10:13:46;97610.44;;;11.66;100.00
41202;BME280;26936;50.524;8.684;2023-04-01T10:19:10;97611.84;;;11.50;100.00
41202;BME280;26936;50.524;8.684;2023-04-01T10:25:03;97606.84;;;11.34;100.00
41202;BME280;26936;50.524;8.684;2023-04-01T10:33:32;97616.66;;;11.44;100.00
41202;BME280;26936;50.524;8.684;2023-04-01T10:36:33;97616.38;;;11.42;100.00
41202;BME280;26936;50.524;8.684;2023-04-01T10:45:02;97615.50;;;11.56;100.00
41202;BME280;26936;50.524;8.684;2023-04-01T10:58:48;97621.13;;;11.93;100.00
41202;BME280;26936;50.524;8.684;2023-04-01T11:07:20;97619.47;;;12.17;100.00
41202;BME280;26936;50.524;8.684;2023-04-01T11:23:58;97613.09;;;11.80;100.00
41202;BME280;26936;50.524;8.684;2023-04-01T11:37:48;97625.28;;;12.03;100.00
41202;BME280;26936;50.524;8.684;2023-04-01T11:40:45;97625.38;;;12.19;100.00
41202;BME280;26936;50.524;8.684;2023-04-01T11:43:29;97624.91;;;12.26;100.00
41202;BME280;26936;50.524;8.684;2023-04-01T11:46:05;97630.88;;;12.40;100.00
41202;BME280;26936;50.524;8.684;2023-04-01T11:59:51;97642.53;;;12.10;100.00
41202;BME280;26936;50.524;8.684;2023-04-01T12:13:42;97653.72;;;11.99;100.00
41202;BME280;26936;50.524;8.684;2023-04-01T12:19:17;97651.41;;;11.98;100.00
41202;BME280;26936;50.524;8.684;2023-04-01T12:22:12;97655.53;;;11.97;100.00
41202;BME280;26936;50.524;8.684;2023-04-01T12:33:04;97665.84;;;12.11;100.00
41202;BME280;26936;50.524;8.684;2023-04-01T12:35:52;97672.84;;;12.21;98.76
41202;BME280;26936;50.524;8.684;2023-04-01T12:41:25;97663.69;;;12.37;98.82
41202;BME280;26936;50.524;8.684;2023-04-01T12:49:31;97670.94;;;12.55;95.68
41202;BME280;26936;50.524;8.684;2023-04-01T13:06:55;97685.19;;;12.88;94.15
41202;BME280;26936;50.524;8.684;2023-04-01T13:12:58;97691.31;;;12.81;94.30
41202;BME280;26936;50.524;8.684;2023-04-01T13:21:54;97703.44;;;12.87;93.62
41202;BME280;26936;50.524;8.684;2023-04-01T13:29:46;97702.69;;;12.97;91.18
41202;BME280;26936;50.524;8.684;2023-04-01T13:38:04;97716.91;;;13.19;93.00
41202;BME280;26936;50.524;8.684;2023-04-01T13:40:43;97712.44;;;12.96;92.84
41202;BME280;26936;50.524;8.684;2023-04-01T13:43:22;97717.84;;;12.89;92.04
41202;BME280;26936;50.524;8.684;2023-04-01T13:46:03;97717.84;;;12.89;91.95
41202;BME280;26936;50.524;8.684;2023-04-01T13:56:54;97720.78;;;12.63;96.34
41202;BME280;26936;50.524;8.684;2023-04-01T13:59:37;97730.84;;;12.70;98.33
41202;BME280;26936;50.524;8.684;2023-04-01T14:02:29;97729.81;;;12.73;97.65
41202;BME280;26936;50.524;8.684;2023-04-01T14:11:41;97735.88;;;12.49;100.00
41202;BME280;26936;50.524;8.684;2023-04-01T14:16:58;97734.34;;;12.11;100.00
41202;BME280;26936;50.524;8.684;2023-04-01T14:22:42;97750.28;;;11.83;100.00
41202;BME280;26936;50.524;8.684;2023-04-01T14:28:25;97749.41;;;11.66;100.00
41202;BME280;26936;50.524;8.684;2023-04-01T14:31:17;97749.66;;;11.68;100.00
41202;BME280;26936;50.524;8.684;2023-04-01T14:37:15;97748.25;;;11.84;100.00
41202;BME280;26936;50.524;8.684;2023-04-01T14:40:00;97747.56;;;11.94;100.00
41202;BME280;26936;50.524;8.684;2023-04-01T14:43:01;97755.53;;;12.32;100.00
41202;BME280;26936;50.524;8.684;2023-04-01T14:48:31;97759.31;;;12.61;100.00
41202;BME280;26936;50.524;8.684;2023-04-01T14:51:48;97765.97;;;12.58;100.00
41202;BME280;26936;50.524;8.684;2023-04-01T14:54:31;97769.84;;;12.66;100.00
41202;BME280;26936;50.524;8.684;2023-04-01T14:57:30;97772.00;;;12.40;100.00
41202;BME280;26936;50.524;8.684;2023-04-01T15:00:16;97775.91;;;12.48;100.00
41202;BME280;26936;50.524;8.684;2023-04-01T15:03:08;97772.75;;;12.35;100.00
41202;BME280;26936;50.524;8.684;2023-04-01T15:05:49;97783.13;;;12.17;100.00
41202;BME280;26936;50.524;8.684;2023-04-01T15:08:32;97781.53;;;12.05;100.00
41202;BME280;26936;50.524;8.684;2023-04-01T15:11:15;97784.59;;;12.07;100.00
41202;BME280;26936;50.524;8.684;2023-04-01T15:14:05;97787.41;;;12.07;100.00
41202;BME280;26936;50.524;8.684;2023-04-01T15:19:57;97785.44;;;12.19;100.00
41202;BME280;26936;50.524;8.684;2023-04-01T15:25:22;97794.69;;;12.19;100.00
41202;BME280;26936;50.524;8.684;2023-04-01T15:28:05;97802.97;;;12.28;100.00
41202;BME280;26936;50.524;8.684;2023-04-01T15:30:37;97801.44;;;12.27;100.00
41202;BME280;26936;50.524;8.684;2023-04-01T15:33:31;97807.34;;;12.29;100.00
41202;BME280;26936;50.524;8.684;2023-04-01T15:36:26;97809.72;;;12.37;100.00
41202;BME280;26936;50.524;8.684;2023-04-01T15:39:11;97810.06;;;12.50;100.00
41202;BME280;26936;50.524;8.684;2023-04-01T15:44:33;97816.44;;;12.45;100.00
41202;BME280;26936;50.524;8.684;2023-04-01T15:47:31;97811.56;;;12.45;100.00
41202;BME280;26936;50.524;8.684;2023-04-01T15:50:03;97827.50;;;12.48;100.00
41202;BME280;26936;50.524;8.684;2023-04-01T15:52:40;97820.03;;;12.45;100.00
41202;BME280;26936;50.524;8.684;2023-04-01T16:00:47;97835.25;;;12.22;100.00
41202;BME280;26936;50.524;8.684;2023-04-01T16:03:22;97840.06;;;12.10;100.00
41202;BME280;26936;50.524;8.684;2023-04-01T16:08:48;97843.38;;;11.83;100.00
41202;BME280;26936;50.524;8.684;2023-04-01T16:11:25;97848.78;;;11.87;100.00
41202;BME280;26936;50.524;8.684;2023-04-01T16:14:07;97846.63;;;11.76;100.00
41202;BME280;26936;50.524;8.684;2023-04-01T16:22:21;97861.34;;;11.40;100.00
41202;BME280;26936;50.524;8.684;2023-04-01T16:27:24;97862.06;;;11.35;100.00
41202;BME280;26936;50.524;8.684;2023-04-01T16:29:53;97857.97;;;11.36;100.00
41202;BME280;26936;50.524;8.684;2023-04-01T16:35:34;97864.25;;;11.26;100.00
41202;BME280;26936;50.524;8.684;2023-04-01T16:38:26;97863.53;;;11.31;100.00
41202;BME280;26936;50.524;8.684;2023-04-01T16:43:45;97874.94;;;11.42;100.00
41202;BME280;26936;50.524;8.684;2023-04-01T16:49:15;97867.41;;;11.53;100.00
41202;BME280;26936;50.524;8.684;2023-04-01T16:51:53;97877.03;;;11.67;100.00
41202;BME280;26936;50.524;8.684;2023-04-01T16:54:38;97891.78;;;11.56;100.00
41202;BME280;26936;50.524;8.684;2023-04-01T17:02:17;97898.16;;;11.57;100.00
41202;BME280;26936;50.524;8.684;2023-04-01T17:13:29;97923.84;;;11.39;100.00
41202;BME280;26936;50.524;8.684;2023-04-01T17:21:16;97938.28;;;11.26;100.00
41202;BME280;26936;50.524;8.684;2023-04-01T17:23:52;97938.78;;;11.25;100.00
41202;BME280;26936;50.524;8.684;2023-04-01T17:26:28;97939.56;;;11.25;100.00
41202;BME280;26936;50.524;8.684;2023-04-01T17:36:38;97960.69;;;11.15;100.00
41202;BME280;26936;50.524;8.684;2023-04-01T17:41:54;97960.81;;;11.06;100.00
41202;BME280;26936;50.524;8.684;2023-04-01T17:44:31;97964.81;;;11.00;100.00
41202;BME280;26936;50.524;8.684;2023-04-01T17:47:39;97966.84;;;10.99;100.00
41202;BME280;26936;50.524;8.684;2023-04-01T17:53:13;97982.97;;;10.98;100.00
41202;BME280;26936;50.524;8.684;2023-04-01T18:01:11;97996.69;;;10.91;100.00
41202;BME280;26936;50.524;8.684;2023-04-01T18:04:06;97990.47;;;10.87;100.00
41202;BME280;26936;50.524;8.684;2023-04-01T18:12:33;98013.69;;;10.82;100.00
41202;BME280;26936;50.524;8.684;2023-04-01T18:18:02;98023.59;;;10.63;100.00
41202;BME280;26936;50.524;8.684;2023-04-01T18:23:30;98029.13;;;10.57;100.00
41202;BME280;26936;50.524;8.684;2023-04-01T18:26:59;98037.56;;;10.57;100.00
41202;BME280;26936;50.524;8.684;2023-04-01T18:29:20;98030.88;;;10.55;100.00
41202;BME280;26936;50.524;8.684;2023-04-01T18:31:52;98051.16;;;10.59;100.00
41202;BME280;26936;50.524;8.684;2023-04-01T18:39:53;98074.94;;;10.58;100.00
41202;BME280;26936;50.524;8.684;2023-04-01T18:42:38;98067.38;;;10.49;100.00
41202;BME280;26936;50.524;8.684;2023-04-01T18:45:27;98077.94;;;10.40;100.00
41202;BME280;26936;50.524;8.684;2023-04-01T18:48:08;98081.06;;;10.42;100.00
41202;BME280;26936;50.524;8.684;2023-04-01T18:56:37;98097.16;;;10.41;100.00
41202;BME280;26936;50.524;8.684;2023-04-01T18:59:21;98095.63;;;10.40;100.00
41202;BME280;26936;50.524;8.684;2023-04-01T19:02:19;98103.75;;;10.38;100.00
41202;BME280;26936;50.524;8.684;2023-04-01T19:05:02;98109.19;;;10.42;100.00
41202;BME280;26936;50.524;8.684;2023-04-01T19:07:41;98113.47;;;10.37;100.00
41202;BME280;26936;50.524;8.684;2023-04-01T19:15:44;98118.50;;;10.33;100.00
41202;BME280;26936;50.524;8.684;2023-04-01T19:21:14;98122.41;;;10.36;100.00
41202;BME280;26936;50.524;8.684;2023-04-01T19:24:01;98133.84;;;10.32;100.00
41202;BME280;26936;50.524;8.684;2023-04-01T19:26:37;98127.28;;;10.26;100.00
41202;BME280;26936;50.524;8.684;2023-04-01T19:29:12;98137.59;;;10.29;100.00
41202;BME280;26936;50.524;8.684;2023-04-01T19:37:31;98144.66;;;10.25;100.00
41202;BME280;26936;50.524;8.684;2023-04-01T19:45:29;98146.88;;;10.21;100.00
41202;BME280;26936;50.524;8.684;2023-04-01T19:50:55;98154.41;;;10.15;100.00
41202;BME280;26936;50.524;8.684;2023-04-01T19:53:35;98155.56;;;10.08;100.00
41202;BME280;26936;50.524;8.684;2023-04-01T19:56:19;98159.47;;;10.11;100.00
41202;BME280;26936;50.524;8.684;2023-04-01T19:59:07;98167.59;;;10.09;100.00
41202;BME280;26936;50.524;8.684;2023-04-01T20:01:52;98168.53;;;10.06;100.00
41202;BME280;26936;50.524;8.684;2023-04-01T20:04:28;98170.41;;;10.09;100.00